createdAt,value
2019-03-16T15:02:38.077Z,75.00
2019-03-16T15:05:08.580Z,75.90
2019-03-16T15:07:38.948Z,75.90
2019-03-16T15:10:09.522Z,75.60
2019-03-16T15:12:39.771Z,76.20
2019-03-16T15:15:11.599Z,76.70
2019-03-16T15:17:41.335Z,76.20
2019-03-16T15:20:10.849Z,76.30
2019-03-16T15:22:41.233Z,77.30
2019-03-16T15:25:11.561Z,77.30
2019-03-16T15:27:42.219Z,77.50
2019-03-16T15:30:14.231Z,77.40
2019-03-16T15:32:44.643Z,77.60
2019-03-16T15:35:14.718Z,78.00
2019-03-16T15:37:45.022Z,77.90
2019-03-16T15:40:14.747Z,77.90
2019-03-16T15:42:44.952Z,78.30
2019-03-16T15:45:17.034Z,78.50
2019-03-16T15:47:47.186Z,78.30
2019-03-16T15:50:17.256Z,78.70
2019-03-16T15:52:47.382Z,78.70
2019-03-16T15:55:17.525Z,78.70
2019-03-16T15:57:47.946Z,78.10
2019-03-16T16:00:18.155Z,78.50
2019-03-16T16:02:48.853Z,78.70
2019-03-16T16:05:18.931Z,79.30
2019-03-16T16:07:48.672Z,79.20
2019-03-16T16:10:19.103Z,79.70
2019-03-16T16:12:49.603Z,79.90
2019-03-16T16:15:19.630Z,80.00
2019-03-16T16:17:50.361Z,79.80
2019-03-16T16:20:20.425Z,80.40
2019-03-16T16:22:50.457Z,80.80
2019-03-16T16:25:20.809Z,81.30
2019-03-16T16:27:50.843Z,81.50
2019-03-16T16:30:20.636Z,82.00
2019-03-16T16:32:51.038Z,82.20
2019-03-16T16:35:21.155Z,83.20
2019-03-16T16:37:51.533Z,83.60
2019-03-16T16:40:21.967Z,83.40
2019-03-16T16:42:52.715Z,83.50
2019-03-16T16:45:23.085Z,83.80
2019-03-16T16:47:52.991Z,84.20
2019-03-16T16:50:23.362Z,84.50
2019-03-16T16:52:53.869Z,84.80
2019-03-16T16:55:23.892Z,84.80
2019-03-16T16:57:54.277Z,85.30
2019-03-16T17:00:24.317Z,85.60
2019-03-16T17:02:55.088Z,85.60
2019-03-16T17:05:25.760Z,86.00
2019-03-16T17:07:56.016Z,86.30
2019-03-16T17:10:26.429Z,86.70
2019-03-16T17:12:55.795Z,87.60
2019-03-16T17:15:26.492Z,88.60
2019-03-16T17:17:57.225Z,89.70
2019-03-16T17:20:27.318Z,90.10
2019-03-16T17:22:57.250Z,90.90
2019-03-16T17:25:27.638Z,91.50
2019-03-16T17:27:57.649Z,91.50
2019-03-16T17:30:28.487Z,91.90
2019-03-16T17:32:59.212Z,92.00
2019-03-16T17:35:29.153Z,92.50
2019-03-16T17:37:59.123Z,92.60
2019-03-16T17:40:29.552Z,93.00
2019-03-16T17:42:59.358Z,93.40
2019-03-16T17:45:29.739Z,93.40
2019-03-16T17:47:59.729Z,93.50
2019-03-16T17:50:29.979Z,93.60
2019-03-16T17:53:00.371Z,93.70
2019-03-16T17:55:30.889Z,93.90
2019-03-16T17:58:00.935Z,94.10
2019-03-16T18:00:30.989Z,94.30
2019-03-16T18:03:01.384Z,94.10
2019-03-16T18:05:31.753Z,94.10
2019-03-16T18:08:02.232Z,93.90
2019-03-16T18:10:33.100Z,93.50
2019-03-16T18:13:03.500Z,93.30
2019-03-16T18:15:33.858Z,93.00
2019-03-16T18:18:04.355Z,93.00
2019-03-16T18:20:34.755Z,92.90
2019-03-16T18:23:05.373Z,92.50
2019-03-16T18:25:37.808Z,92.40
2019-03-16T18:28:07.489Z,92.50
2019-03-16T18:30:37.523Z,92.60
2019-03-16T18:33:07.629Z,92.70
2019-03-16T18:35:37.403Z,92.90
2019-03-16T18:38:07.777Z,92.90
2019-03-16T18:40:37.882Z,92.90
2019-03-16T18:43:07.961Z,93.10
2019-03-16T18:45:38.108Z,93.40
2019-03-16T18:48:08.088Z,93.80
2019-03-16T18:50:38.776Z,94.50
2019-03-16T18:53:09.091Z,95.10
2019-03-16T18:55:39.416Z,95.30
2019-03-16T18:58:09.118Z,95.90
2019-03-16T19:00:39.116Z,96.10
2019-03-16T19:03:11.519Z,96.40
2019-03-16T19:05:41.141Z,96.20
2019-03-16T19:08:10.895Z,95.60
2019-03-16T19:10:41.299Z,94.90
2019-03-16T19:13:10.548Z,95.00
2019-03-16T19:15:40.815Z,95.40
2019-03-16T19:18:11.266Z,95.80
2019-03-16T19:20:41.356Z,96.10
2019-03-16T19:23:11.823Z,96.00
2019-03-16T19:25:42.646Z,95.80
2019-03-16T19:28:13.220Z,95.10
2019-03-16T19:30:43.642Z,94.90
2019-03-16T19:33:13.923Z,91.60
2019-03-16T19:35:44.706Z,90.50
2019-03-16T19:38:14.971Z,92.10
2019-03-16T19:40:45.056Z,90.20
2019-03-16T19:43:15.268Z,89.00
2019-03-16T19:45:45.605Z,87.00
2019-03-16T19:48:16.426Z,80.90
2019-03-16T19:50:46.849Z,79.90
2019-03-16T19:53:16.888Z,79.00
2019-03-16T19:55:47.000Z,78.20
2019-03-16T19:58:17.479Z,75.70
2019-03-16T20:00:47.853Z,76.00
2019-03-16T20:03:18.495Z,77.30
2019-03-16T20:05:48.682Z,78.60
2019-03-16T20:08:18.790Z,78.50
2019-03-16T20:10:49.262Z,78.60
2019-03-16T20:13:19.697Z,77.70
2019-03-16T20:15:49.705Z,78.80
2019-03-16T20:18:19.849Z,78.10
2019-03-16T20:20:50.702Z,78.20
2019-03-16T20:23:20.889Z,78.30
2019-03-16T20:25:51.113Z,78.00
2019-03-16T20:28:21.619Z,77.10
2019-03-16T20:30:52.304Z,74.90
2019-03-16T20:33:21.698Z,74.50
2019-03-16T20:35:51.602Z,72.70
2019-03-16T20:38:21.956Z,71.20
2019-03-16T20:40:52.321Z,70.60
2019-03-16T20:43:22.459Z,70.50
2019-03-16T20:45:52.646Z,69.60
2019-03-16T20:48:22.594Z,67.70
2019-03-16T20:50:52.310Z,64.60
2019-03-16T20:53:21.667Z,64.40
2019-03-16T20:55:51.703Z,63.40
2019-03-16T20:58:22.424Z,62.00
